North Weymouth, Massachusetts
Current Conditions -  °F | °C
As of 7:54 PM on Thursday 27 Nov 2014 (Local Time) from KBOS Reporting Station
Overcast Overcast  
Wind Chill: 25°   Ceiling: 1900
Heat Index: 34°   Visibility: 10mi
Dew Point: 26°   Wind: 12mph
Humidity: 73%   Direction: 320°NW
Pressure: 30.01"   Gusts: NA
Location:  42.2435°N, 70.9438°W
Report Text: KBOS 280054Z 32010KT 10SM BKN019 OVC042 01/M03 A3001 RMK AO2 SLP161 T00111033
Loading
Personal Weather Stations






























Interactive Weather Map New forecast layout! Learn more

10-Day Weather Forecast

Advertisements
Track Severe Weather on mobile